Estación Meteorológica Peña el Pijo (Robertgarden) [ 02/19/19 21:30:31 CET ]

Fecha Hora Presion(HPa) Temp (°C) Humedad % Rocio (°C) Viento ( m/s) Direccion Lluvia 1Hora(mm) Lluvia 24H(mm) LLuvia Total(mm)
2019-Feb-17 01:01:48 1014.200 -0.4 70 -5.2         183.37
2019-Feb-17 02:01:41 1014.200 -0.4 71 -5.0         183.37
2019-Feb-17 03:10:09 1013.900 -0.7 72 -5.1         183.37
2019-Feb-17 04:01:43 1012.900 -0.9 72 -5.3         183.37
2019-Feb-17 05:01:44 1012.400 -1.1 73 -5.4         183.37
2019-Feb-17 06:04:11 1012.400 -1.2 74 -5.3         183.37
2019-Feb-17 07:01:52 1012.300 -1.1 76 -4.8         183.37
2019-Feb-17 08:01:41 1012.400 -1.6 77 -5.1         183.37
2019-Feb-17 09:02:06 1012.400 -1.2 78 -4.6         183.37
2019-Feb-17 10:01:52 1012.400 3.4 70 -1.5         183.37
2019-Feb-17 11:01:42 1012.400 9.5 47 -1.3 1.5 NE     183.37
2019-Feb-17 12:01:46 1012.200 11.8 40 -1.4 2.8 ENE     183.37
2019-Feb-17 13:01:41 1011.700 13.2 39 -0.5         183.37
2019-Feb-17 14:01:58 1010.700 15.1 34 -0.8         183.37
2019-Feb-17 15:01:40 1010.200 15.8 34 -0.2         183.37
2019-Feb-17 16:01:44 1009.800 15.1 38 0.8         183.37
2019-Feb-17 17:01:57 1009.600 13.6 45 1.6         183.37
2019-Feb-17 18:01:38 1009.100 10.9 53 1.7         183.37
2019-Feb-17 19:01:42 1009.700 8.4 61 1.3         183.37
2019-Feb-17 20:01:47 1010.100 6.5 68 1.0         183.37
2019-Feb-17 21:01:37 1010.400 3.7 71 -1.1         183.37
2019-Feb-17 22:01:31 1010.600 1.9 74 -2.3         183.37
2019-Feb-17 23:01:47 1010.600 1.2 77 -2.4         183.37

Temperatura Máxima:15°    Temperatura Mínima:-1°
Presión Máxima:1014.200 Hpa    Presión Mínima:1009.100 Hpa


Volver